createdAt,value
2022-09-10T00:00:58.113Z,66.22
2022-09-10T00:04:05.377Z,66.26
2022-09-10T00:07:11.324Z,66.38
2022-09-10T00:10:18.810Z,66.38
2022-09-10T00:13:25.341Z,66.28
2022-09-10T00:16:32.314Z,65.97
2022-09-10T00:19:38.221Z,65.88
2022-09-10T00:22:44.096Z,65.93
2022-09-10T00:25:51.185Z,66.16
2022-09-10T00:28:59.659Z,66.55
2022-09-10T00:32:06.085Z,66.42
2022-09-10T00:35:12.313Z,66.05
2022-09-10T00:38:19.136Z,66.18
2022-09-10T00:41:27.059Z,66.18
2022-09-10T00:44:57.091Z,66.21
2022-09-10T00:48:06.730Z,66.19
2022-09-10T00:51:13.210Z,66.35
2022-09-10T00:54:21.472Z,66.27
2022-09-10T00:57:30.446Z,66.54
2022-09-10T01:00:37.031Z,66.52
2022-09-10T01:03:44.741Z,66.66
2022-09-10T01:06:52.530Z,66.60
2022-09-10T01:10:00.058Z,66.43
2022-09-10T01:13:21.914Z,66.42
2022-09-10T01:16:35.906Z,66.33
2022-09-10T01:20:24.999Z,66.53
2022-09-10T01:24:05.470Z,66.66
2022-09-10T01:27:32.942Z,66.70
2022-09-10T01:30:44.932Z,66.66
2022-09-10T01:33:57.347Z,66.51
2022-09-10T01:37:10.257Z,66.94
2022-09-10T01:40:18.955Z,67.45
2022-09-10T01:43:24.937Z,67.52
2022-09-10T01:46:35.950Z,68.19
2022-09-10T01:49:51.771Z,68.46
2022-09-10T01:53:05.249Z,68.73
2022-09-10T01:56:22.039Z,68.95
2022-09-10T01:59:34.725Z,68.54
2022-09-10T02:02:44.750Z,68.04
2022-09-10T02:05:54.463Z,67.96
2022-09-10T02:09:01.848Z,67.39
2022-09-10T02:12:09.077Z,67.16
2022-09-10T02:15:15.343Z,67.12
2022-09-10T02:18:22.550Z,67.07
2022-09-10T02:21:28.912Z,67.21
2022-09-10T02:24:34.787Z,67.19
2022-09-10T02:27:40.731Z,67.26
2022-09-10T02:30:48.405Z,67.25
2022-09-10T02:33:54.801Z,67.30
2022-09-10T02:37:00.984Z,67.69
2022-09-10T02:40:09.099Z,67.23
2022-09-10T02:43:14.977Z,67.40
2022-09-10T02:46:21.734Z,67.27
2022-09-10T02:49:28.438Z,67.23
2022-09-10T02:52:34.563Z,67.22
2022-09-10T02:55:38.858Z,67.26
2022-09-10T02:58:58.748Z,67.40
2022-09-10T03:02:05.130Z,67.25
2022-09-10T03:05:12.378Z,67.28
2022-09-10T03:08:18.261Z,67.61
2022-09-10T03:11:27.706Z,67.74
2022-09-10T03:14:34.310Z,67.96
2022-09-10T03:17:40.173Z,67.75
2022-09-10T03:20:46.194Z,67.83
2022-09-10T03:23:53.938Z,67.94
2022-09-10T03:27:00.089Z,68.15
2022-09-10T03:30:06.550Z,68.36
2022-09-10T03:33:14.050Z,68.39
2022-09-10T03:36:21.094Z,68.52
2022-09-10T03:39:27.101Z,68.67
2022-09-10T03:42:31.319Z,68.94
2022-09-10T03:45:37.236Z,69.30
2022-09-10T03:48:43.866Z,68.90
2022-09-10T03:51:50.002Z,68.77
2022-09-10T03:54:56.171Z,68.85
2022-09-10T03:58:02.183Z,68.98
2022-09-10T04:01:07.068Z,69.08
2022-09-10T04:04:12.965Z,68.99
2022-09-10T04:07:18.819Z,68.51
2022-09-10T04:10:25.231Z,68.76
2022-09-10T04:13:31.818Z,68.79
2022-09-10T04:16:37.807Z,68.79
2022-09-10T04:19:42.081Z,68.70
2022-09-10T04:22:47.962Z,68.85
2022-09-10T04:25:54.090Z,68.41
2022-09-10T04:28:58.316Z,68.67
2022-09-10T04:32:04.985Z,68.74
2022-09-10T04:35:15.520Z,68.56
2022-09-10T04:38:21.513Z,68.78
2022-09-10T04:41:25.710Z,68.90
2022-09-10T04:44:33.176Z,69.19
2022-09-10T04:47:39.366Z,69.42
2022-09-10T04:51:05.472Z,69.42
2022-09-10T04:54:13.638Z,69.16
2022-09-10T04:57:19.490Z,68.95
2022-09-10T05:00:26.720Z,68.99
2022-09-10T05:03:32.678Z,68.87
2022-09-10T05:06:38.703Z,68.57
2022-09-10T05:09:43.176Z,68.50
2022-09-10T05:12:49.343Z,68.82
2022-09-10T05:15:55.201Z,68.45
2022-09-10T05:19:01.263Z,68.84
2022-09-10T05:22:05.782Z,68.64
2022-09-10T05:25:12.408Z,68.99
2022-09-10T05:28:18.271Z,68.88
2022-09-10T05:31:24.224Z,68.92
2022-09-10T05:34:30.182Z,68.91
2022-09-10T05:37:36.247Z,68.66
2022-09-10T05:40:43.468Z,68.94
2022-09-10T05:43:49.451Z,69.14
2022-09-10T05:46:53.768Z,69.00
2022-09-10T05:49:59.645Z,69.21
2022-09-10T05:53:05.579Z,69.02
2022-09-10T05:56:12.030Z,68.79
2022-09-10T05:59:17.978Z,68.62
2022-09-10T06:02:24.526Z,68.65
2022-09-10T06:05:30.498Z,68.70
2022-09-10T06:08:37.055Z,68.82
2022-09-10T06:11:43.421Z,68.73
2022-09-10T06:14:49.685Z,68.96
2022-09-10T06:17:56.823Z,69.21
2022-09-10T06:21:08.840Z,69.08
2022-09-10T06:24:15.842Z,69.25
2022-09-10T06:27:23.425Z,69.17
2022-09-10T06:30:29.331Z,69.17
2022-09-10T06:33:36.189Z,68.83
2022-09-10T06:36:43.740Z,69.18
2022-09-10T06:39:49.914Z,69.30
2022-09-10T06:42:56.058Z,69.08
2022-09-10T06:46:02.075Z,68.89
2022-09-10T06:49:06.498Z,69.35
2022-09-10T06:52:13.243Z,69.36
2022-09-10T06:55:19.298Z,69.25
2022-09-10T06:58:24.702Z,69.27
2022-09-10T07:01:31.058Z,69.16
2022-09-10T07:04:37.200Z,68.97
2022-09-10T07:07:43.623Z,69.08
2022-09-10T07:10:49.606Z,69.10
2022-09-10T07:13:54.589Z,69.19
2022-09-10T07:17:00.479Z,69.34
2022-09-10T07:20:07.730Z,68.73
2022-09-10T07:23:14.799Z,68.73
2022-09-10T07:26:21.473Z,68.72
2022-09-10T07:29:31.416Z,68.80
2022-09-10T07:32:37.423Z,69.06
2022-09-10T07:35:43.356Z,69.15
2022-09-10T07:38:52.546Z,68.80
2022-09-10T07:41:59.738Z,68.90
2022-09-10T07:45:07.281Z,68.78
2022-09-10T07:48:13.484Z,68.58
2022-09-10T07:51:19.402Z,68.78
2022-09-10T07:54:25.266Z,68.94
2022-09-10T07:57:31.710Z,69.01
2022-09-10T08:00:37.567Z,69.10
2022-09-10T08:03:43.831Z,69.06
2022-09-10T08:06:49.707Z,69.15
2022-09-10T08:09:55.546Z,69.26
2022-09-10T08:13:01.410Z,69.19
2022-09-10T08:16:12.225Z,69.15
2022-09-10T08:19:18.294Z,68.99
2022-09-10T08:22:22.500Z,69.21
2022-09-10T08:25:28.401Z,68.97
2022-09-10T08:28:34.543Z,68.08
2022-09-10T08:31:41.337Z,68.35
2022-09-10T08:34:47.487Z,68.40
2022-09-10T08:37:53.639Z,68.50
2022-09-10T08:41:00.868Z,68.36
2022-09-10T08:44:13.661Z,68.37
2022-09-10T08:47:30.130Z,68.21
2022-09-10T08:50:42.270Z,68.19
2022-09-10T08:53:55.922Z,68.35
2022-09-10T08:57:03.785Z,68.47
2022-09-10T09:00:16.186Z,68.59
2022-09-10T09:03:28.670Z,68.87
2022-09-10T09:06:39.740Z,69.21
2022-09-10T09:09:45.921Z,68.98
2022-09-10T09:13:17.545Z,68.82
2022-09-10T09:16:52.410Z,69.74
2022-09-10T09:20:06.165Z,69.77
2022-09-10T09:23:21.426Z,68.78
2022-09-10T09:26:36.133Z,69.07
2022-09-10T09:29:47.296Z,68.85
2022-09-10T09:32:53.649Z,68.41
2022-09-10T09:36:03.193Z,68.21
2022-09-10T09:39:18.275Z,68.19
2022-09-10T09:42:30.508Z,68.02
2022-09-10T09:45:42.606Z,67.97
2022-09-10T09:48:53.641Z,67.73
2022-09-10T09:52:02.995Z,67.67
2022-09-10T09:55:18.904Z,67.77
2022-09-10T09:58:34.779Z,67.09
2022-09-10T10:01:42.995Z,66.09
2022-09-10T10:05:04.990Z,66.67
2022-09-10T10:08:31.045Z,66.92
2022-09-10T10:11:49.900Z,67.37
2022-09-10T10:14:55.800Z,67.50
2022-09-10T10:18:03.493Z,67.26
2022-09-10T10:21:19.856Z,67.96
2022-09-10T10:24:34.170Z,68.65
2022-09-10T10:27:45.431Z,68.80
2022-09-10T10:30:56.829Z,68.87
2022-09-10T10:34:22.146Z,69.35
2022-09-10T10:37:39.490Z,69.25
2022-09-10T10:40:50.870Z,69.23
2022-09-10T10:44:09.460Z,68.97
2022-09-10T10:47:29.339Z,68.82
2022-09-10T10:50:47.838Z,68.17
2022-09-10T10:54:15.374Z,68.39
2022-09-10T10:57:32.385Z,68.28
2022-09-10T11:00:45.594Z,68.37
2022-09-10T11:04:01.173Z,68.54
2022-09-10T11:07:14.219Z,68.45
2022-09-10T11:10:25.285Z,68.12
2022-09-10T11:13:38.073Z,68.51
2022-09-10T11:16:49.107Z,68.71
2022-09-10T11:20:27.082Z,68.55
2022-09-10T11:23:39.712Z,68.88
2022-09-10T11:26:51.267Z,69.02
2022-09-10T11:30:03.821Z,68.90
2022-09-10T11:33:18.002Z,68.93
2022-09-10T11:36:29.569Z,68.64
2022-09-10T11:39:39.860Z,68.83
2022-09-10T11:42:51.429Z,68.79
2022-09-10T11:46:03.280Z,68.04
2022-09-10T11:49:18.211Z,67.89
2022-09-10T11:52:25.895Z,67.92
2022-09-10T11:55:56.074Z,68.01
2022-09-10T11:59:19.586Z,67.80
2022-09-10T12:03:03.708Z,67.33
2022-09-10T12:06:15.237Z,67.96
2022-09-10T12:09:28.109Z,68.69
2022-09-10T12:12:41.938Z,68.40
2022-09-10T12:15:57.073Z,69.11
2022-09-10T12:19:05.747Z,68.73
2022-09-10T12:22:21.829Z,68.17
2022-09-10T12:25:34.377Z,68.31
2022-09-10T12:29:07.382Z,67.49
2022-09-10T12:32:30.954Z,66.43
2022-09-10T12:35:48.706Z,65.23
2022-09-10T12:39:10.668Z,65.71
2022-09-10T12:42:36.931Z,66.46
2022-09-10T12:46:05.774Z,66.07
2022-09-10T12:49:17.802Z,66.39
2022-09-10T12:52:32.356Z,65.28
2022-09-10T12:55:53.427Z,65.20
2022-09-10T12:59:18.446Z,65.31
2022-09-10T13:02:31.978Z,65.70
2022-09-10T13:05:50.627Z,65.52
2022-09-10T13:08:57.444Z,64.98
2022-09-10T13:12:08.333Z,63.76
2022-09-10T13:15:22.567Z,64.42
2022-09-10T13:18:31.654Z,65.98
2022-09-10T13:21:57.064Z,66.03
2022-09-10T13:25:02.338Z,65.47
2022-09-10T13:28:52.355Z,63.81
2022-09-10T13:32:03.918Z,63.94
2022-09-10T13:35:41.305Z,64.88
2022-09-10T13:39:20.866Z,65.85
2022-09-10T13:42:55.706Z,65.01
2022-09-10T13:46:07.813Z,65.37
2022-09-10T13:49:20.338Z,65.32
2022-09-10T13:52:30.414Z,65.09
2022-09-10T13:55:37.192Z,64.85
2022-09-10T13:58:49.857Z,64.80
2022-09-10T14:01:56.881Z,65.68
2022-09-10T14:05:02.815Z,64.24
2022-09-10T14:08:08.514Z,63.39
2022-09-10T14:11:22.082Z,63.26
2022-09-10T14:14:31.661Z,62.62
2022-09-10T14:17:43.157Z,63.36
2022-09-10T14:20:49.393Z,63.72
2022-09-10T14:23:57.294Z,63.99
2022-09-10T14:27:16.788Z,63.39
2022-09-10T14:30:29.594Z,63.67
2022-09-10T14:33:39.668Z,65.30
2022-09-10T14:36:45.703Z,65.91
2022-09-10T14:39:49.935Z,64.67
2022-09-10T14:43:14.057Z,64.94
2022-09-10T14:46:50.214Z,64.55
2022-09-10T14:49:57.421Z,64.52
2022-09-10T14:53:03.786Z,64.80
2022-09-10T14:56:24.202Z,64.97
2022-09-10T14:59:33.803Z,63.42
2022-09-10T15:02:41.999Z,63.51
2022-09-10T15:05:48.365Z,63.27
2022-09-10T15:08:56.347Z,62.78
2022-09-10T15:12:07.219Z,63.04
2022-09-10T15:15:17.799Z,61.48
2022-09-10T15:18:23.881Z,62.70
2022-09-10T15:21:31.007Z,63.70
2022-09-10T15:26:57.038Z,64.55
2022-09-10T15:30:02.918Z,64.91
2022-09-10T15:33:07.711Z,64.75
2022-09-10T15:36:13.788Z,64.84
2022-09-10T15:39:19.780Z,64.98
2022-09-10T15:42:23.978Z,65.14
2022-09-10T15:45:29.823Z,65.29
2022-09-10T15:48:36.265Z,65.17
2022-09-10T15:51:42.503Z,65.48
2022-09-10T15:54:48.363Z,65.64
2022-09-10T15:57:55.037Z,65.75
2022-09-10T16:01:05.044Z,65.91
2022-09-10T16:04:11.166Z,66.33
2022-09-10T16:07:17.031Z,66.67
2022-09-10T16:10:23.373Z,66.45
2022-09-10T16:13:29.567Z,66.60
2022-09-10T16:16:37.402Z,66.74
2022-09-10T16:19:43.279Z,66.64
2022-09-10T16:22:49.122Z,67.03
2022-09-10T16:25:56.052Z,67.06
2022-09-10T16:29:03.713Z,66.94
2022-09-10T16:32:09.715Z,66.72
2022-09-10T16:35:13.926Z,66.91
2022-09-10T16:38:19.776Z,67.25
2022-09-10T16:41:27.122Z,67.32
2022-09-10T16:44:33.749Z,67.49
2022-09-10T16:47:39.611Z,67.57
2022-09-10T16:50:45.465Z,67.74
2022-09-10T16:53:57.705Z,67.71
2022-09-10T16:57:03.545Z,67.73
2022-09-10T17:00:14.091Z,67.84
2022-09-10T17:03:20.342Z,67.90
2022-09-10T17:06:28.062Z,67.92
2022-09-10T17:09:33.951Z,67.97
2022-09-10T17:12:40.078Z,68.11
2022-09-10T17:15:46.016Z,68.10
2022-09-10T17:18:55.555Z,68.03
2022-09-10T17:22:01.853Z,67.93
2022-09-10T17:25:09.194Z,67.71
2022-09-10T17:28:16.150Z,67.64
2022-09-10T17:31:22.103Z,67.59
2022-09-10T17:34:27.285Z,67.50
2022-09-10T17:37:33.718Z,67.63
2022-09-10T17:40:39.592Z,67.70
2022-09-10T17:43:46.390Z,67.86
2022-09-10T17:46:52.477Z,67.93
2022-09-10T17:49:58.486Z,67.81
2022-09-10T17:53:03.099Z,67.76
2022-09-10T17:56:11.610Z,67.77
2022-09-10T17:59:17.458Z,67.50
2022-09-10T18:02:23.373Z,67.40
2022-09-10T18:05:29.285Z,67.53
2022-09-10T18:08:36.216Z,67.61
2022-09-10T18:11:43.197Z,67.61
2022-09-10T18:14:49.067Z,67.54
2022-09-10T18:17:55.841Z,67.60
2022-09-10T18:21:13.392Z,67.51
2022-09-10T18:24:22.505Z,67.68
2022-09-10T18:27:28.422Z,67.41
2022-09-10T18:30:34.605Z,67.66
2022-09-10T18:33:41.952Z,67.92
2022-09-10T18:36:48.033Z,69.02
2022-09-10T18:39:53.886Z,65.84
2022-09-10T18:42:59.747Z,62.68
2022-09-10T18:46:06.397Z,62.78
2022-09-10T18:49:17.869Z,63.95
2022-09-10T18:52:27.310Z,63.67
2022-09-10T18:55:33.177Z,65.06
2022-09-10T18:58:39.286Z,65.59
2022-09-10T19:01:45.762Z,65.55
2022-09-10T19:05:10.321Z,65.95
2022-09-10T19:08:17.622Z,66.23
2022-09-10T19:11:24.588Z,66.43
2022-09-10T19:14:32.359Z,66.21
2022-09-10T19:17:38.245Z,66.29
2022-09-10T19:20:44.120Z,65.83
2022-09-10T19:23:53.413Z,66.16
2022-09-10T19:27:02.167Z,66.52
2022-09-10T19:30:10.354Z,66.84
2022-09-10T19:33:16.995Z,66.82
2022-09-10T19:36:22.886Z,66.95
2022-09-10T19:39:28.814Z,67.19
2022-09-10T19:42:34.675Z,67.01
2022-09-10T19:45:41.219Z,66.88
2022-09-10T19:48:47.987Z,66.88
2022-09-10T19:51:54.201Z,66.73
2022-09-10T19:55:00.584Z,66.82
2022-09-10T19:58:06.442Z,66.95
2022-09-10T20:01:14.394Z,67.10
2022-09-10T20:04:20.402Z,67.12
2022-09-10T20:07:26.798Z,67.42
2022-09-10T20:10:33.731Z,67.21
2022-09-10T20:13:39.813Z,67.14
2022-09-10T20:16:44.998Z,67.07
2022-09-10T20:19:51.528Z,67.35
2022-09-10T20:23:00.479Z,67.09
2022-09-10T20:26:12.913Z,66.96
2022-09-10T20:29:20.611Z,66.75
2022-09-10T20:32:27.128Z,66.43
2022-09-10T20:35:32.985Z,66.33
2022-09-10T20:38:39.153Z,66.39
2022-09-10T20:41:45.980Z,66.42
2022-09-10T20:44:51.884Z,66.41
2022-09-10T20:47:59.914Z,66.55
2022-09-10T20:51:06.302Z,66.46
2022-09-10T20:54:15.199Z,66.62
2022-09-10T20:57:22.633Z,66.82
2022-09-10T21:00:28.531Z,67.10
2022-09-10T21:03:34.790Z,67.23
2022-09-10T21:06:40.918Z,67.21
2022-09-10T21:09:45.112Z,67.53
2022-09-10T21:12:51.003Z,67.80
2022-09-10T21:16:04.645Z,67.87
2022-09-10T21:19:13.781Z,67.73
2022-09-10T21:22:20.361Z,67.72
2022-09-10T21:25:26.226Z,67.43
2022-09-10T21:28:32.124Z,67.38
2022-09-10T21:31:38.286Z,67.26
2022-09-10T21:34:42.497Z,67.27
2022-09-10T21:37:48.578Z,67.27
2022-09-10T21:40:57.481Z,67.53
2022-09-10T21:44:06.225Z,67.52
2022-09-10T21:47:12.167Z,67.45
2022-09-10T21:50:18.387Z,67.68
2022-09-10T21:53:24.250Z,67.28
2022-09-10T21:56:30.676Z,67.13
2022-09-10T21:59:36.541Z,67.00
2022-09-10T22:02:42.470Z,66.54
2022-09-10T22:05:48.391Z,66.40
2022-09-10T22:08:58.583Z,66.17
2022-09-10T22:12:04.863Z,66.03
2022-09-10T22:15:12.298Z,66.00
2022-09-10T22:18:18.190Z,66.33
2022-09-10T22:21:24.653Z,66.13
2022-09-10T22:24:30.626Z,66.07
2022-09-10T22:27:36.518Z,66.27
2022-09-10T22:30:42.435Z,66.51
2022-09-10T22:33:53.111Z,66.82
2022-09-10T22:36:58.979Z,66.92
2022-09-10T22:40:05.346Z,66.39
2022-09-10T22:43:11.246Z,66.90
2022-09-10T22:46:17.308Z,67.08
2022-09-10T22:49:22.071Z,67.28
2022-09-10T22:52:27.933Z,67.61
2022-09-10T22:55:34.878Z,67.72
2022-09-10T22:58:41.527Z,68.11
2022-09-10T23:01:48.594Z,68.03
2022-09-10T23:04:54.507Z,67.77
2022-09-10T23:08:00.377Z,67.82
2022-09-10T23:11:15.327Z,67.12
2022-09-10T23:14:22.245Z,66.66
2022-09-10T23:17:28.099Z,66.28
2022-09-10T23:20:33.982Z,65.98
2022-09-10T23:23:39.829Z,65.98
2022-09-10T23:26:46.342Z,65.87
2022-09-10T23:29:52.229Z,65.73
2022-09-10T23:32:58.098Z,65.62
2022-09-10T23:36:04.530Z,65.48
2022-09-10T23:39:13.322Z,65.46
2022-09-10T23:42:19.187Z,65.63
2022-09-10T23:45:25.049Z,65.65
2022-09-10T23:48:30.941Z,65.57
2022-09-10T23:51:37.221Z,65.70
2022-09-10T23:54:43.115Z,65.81
2022-09-10T23:57:48.990Z,65.69
